createdAt,value
2022-12-13T00:01:32.616Z,9.43
2022-12-13T00:04:06.092Z,9.43
2022-12-13T00:06:34.743Z,9.87
2022-12-13T00:09:05.054Z,9.63
2022-12-13T00:11:33.217Z,9.13
2022-12-13T00:14:01.936Z,9.73
2022-12-13T00:16:29.964Z,9.97
2022-12-13T00:18:59.785Z,9.77
2022-12-13T00:21:29.209Z,9.73
2022-12-13T00:23:57.894Z,9.47
2022-12-13T00:26:29.077Z,9.63
2022-12-13T00:28:57.585Z,11.00
2022-12-13T00:31:56.885Z,11.63
2022-12-13T00:34:14.475Z,11.17
2022-12-13T00:36:42.492Z,10.13
2022-12-13T00:39:12.829Z,10.87
2022-12-13T00:41:42.114Z,11.80
2022-12-13T00:44:12.248Z,10.80
2022-12-13T00:46:40.697Z,9.73
2022-12-13T00:49:09.017Z,10.33
2022-12-13T00:51:37.180Z,10.70
2022-12-13T00:54:05.453Z,9.23
2022-12-13T00:56:34.612Z,9.27
2022-12-13T00:59:04.067Z,9.77
2022-12-13T01:01:33.892Z,9.40
2022-12-13T01:04:04.176Z,9.73
2022-12-13T01:06:36.235Z,9.93
2022-12-13T01:09:05.987Z,9.57
2022-12-13T01:11:34.357Z,9.30
2022-12-13T01:14:03.839Z,9.20
2022-12-13T01:16:32.031Z,8.00
2022-12-13T01:19:00.022Z,8.17
2022-12-13T01:21:27.959Z,8.83
2022-12-13T01:24:03.083Z,8.60
2022-12-13T01:26:31.606Z,8.07
2022-12-13T01:28:59.910Z,8.60
2022-12-13T01:31:29.568Z,9.27
2022-12-13T01:33:58.221Z,9.03
2022-12-13T01:36:27.420Z,8.57
2022-12-13T01:38:58.600Z,8.67
2022-12-13T01:41:29.108Z,8.67
2022-12-13T01:44:03.200Z,8.73
2022-12-13T01:46:34.428Z,8.13
2022-12-13T01:49:19.418Z,9.10
2022-12-13T01:51:52.928Z,9.93
2022-12-13T01:54:25.523Z,9.40
2022-12-13T01:57:04.769Z,8.47
2022-12-13T01:59:34.599Z,8.87
2022-12-13T02:02:04.828Z,8.47
2022-12-13T02:04:43.690Z,8.67
2022-12-13T02:07:14.158Z,8.60
2022-12-13T02:09:56.698Z,7.63
2022-12-13T02:12:29.380Z,8.27
2022-12-13T02:15:12.056Z,8.63
2022-12-13T02:17:57.383Z,8.87
2022-12-13T02:20:58.770Z,8.53
2022-12-13T02:24:08.757Z,8.73
2022-12-13T02:26:55.694Z,9.27
2022-12-13T02:30:18.213Z,8.33
2022-12-13T02:32:57.726Z,8.53
2022-12-13T02:35:32.541Z,9.20
2022-12-13T02:38:08.555Z,9.07
2022-12-13T02:40:42.602Z,8.40
2022-12-13T02:43:15.966Z,8.93
2022-12-13T02:45:52.218Z,8.93
2022-12-13T02:48:26.989Z,8.87
2022-12-13T02:50:58.392Z,8.97
2022-12-13T02:53:27.766Z,8.13
2022-12-13T02:55:55.798Z,9.00
2022-12-13T02:58:29.802Z,8.70
2022-12-13T03:01:27.854Z,7.53
2022-12-13T03:04:08.218Z,8.47
2022-12-13T03:06:46.879Z,9.23
2022-12-13T03:09:37.251Z,7.57
2022-12-13T03:12:37.306Z,8.23
2022-12-13T03:15:15.572Z,8.37
2022-12-13T03:17:48.683Z,8.40
2022-12-13T03:20:22.923Z,9.03
2022-12-13T03:22:51.917Z,8.57
2022-12-13T03:25:31.639Z,8.87
2022-12-13T03:28:02.159Z,9.30
2022-12-13T03:30:31.292Z,7.93
2022-12-13T03:32:59.355Z,9.20
2022-12-13T03:35:34.913Z,9.30
2022-12-13T03:38:22.555Z,8.80
2022-12-13T03:40:54.086Z,9.50
2022-12-13T03:43:23.233Z,8.90
2022-12-13T03:45:52.110Z,9.37
2022-12-13T03:48:21.712Z,9.67
2022-12-13T03:50:53.987Z,9.10
2022-12-13T03:53:32.669Z,8.93
2022-12-13T03:56:03.683Z,8.73
2022-12-13T03:58:35.777Z,9.57
2022-12-13T04:01:06.680Z,9.50
2022-12-13T04:03:34.943Z,9.67
2022-12-13T04:06:04.449Z,9.23
2022-12-13T04:08:32.465Z,9.97
2022-12-13T04:11:20.538Z,10.63
2022-12-13T04:13:47.515Z,9.83
2022-12-13T04:16:15.640Z,10.53
2022-12-13T04:18:43.777Z,9.43
2022-12-13T04:21:13.100Z,10.43
2022-12-13T04:23:41.042Z,10.10
2022-12-13T04:26:10.371Z,10.07
2022-12-13T04:28:38.326Z,10.90
2022-12-13T04:31:06.567Z,10.00
2022-12-13T04:33:34.579Z,10.73
2022-12-13T04:36:02.511Z,11.60
2022-12-13T04:38:31.795Z,10.07
2022-12-13T04:41:07.247Z,10.67
2022-12-13T04:43:35.631Z,11.10
2022-12-13T04:46:03.689Z,10.90
2022-12-13T04:48:32.537Z,11.03
2022-12-13T04:51:01.590Z,11.17
2022-12-13T04:53:31.324Z,10.83
2022-12-13T04:55:59.878Z,10.90
2022-12-13T04:58:28.864Z,10.80
2022-12-13T05:00:57.145Z,10.90
2022-12-13T05:03:25.259Z,11.27
2022-12-13T05:05:54.278Z,10.70
2022-12-13T05:08:22.263Z,10.53
2022-12-13T05:10:51.538Z,9.87
2022-12-13T05:13:19.507Z,11.27
2022-12-13T05:15:52.092Z,11.00
2022-12-13T05:18:22.989Z,10.10
2022-12-13T05:20:51.987Z,10.23
2022-12-13T05:23:23.027Z,10.03
2022-12-13T05:25:52.904Z,9.93
2022-12-13T05:28:27.605Z,11.03
2022-12-13T05:30:57.544Z,10.47
2022-12-13T05:33:26.224Z,10.43
2022-12-13T05:35:59.780Z,11.50
2022-12-13T05:38:30.149Z,10.57
2022-12-13T05:40:59.725Z,10.20
2022-12-13T05:43:43.128Z,10.07
2022-12-13T05:46:12.558Z,10.53
2022-12-13T05:48:40.844Z,10.37
2022-12-13T05:51:11.062Z,10.30
2022-12-13T05:53:40.850Z,10.97
2022-12-13T05:56:11.034Z,10.33
2022-12-13T05:58:40.042Z,10.37
2022-12-13T06:01:10.718Z,10.67
2022-12-13T06:03:38.843Z,9.87
2022-12-13T06:06:09.013Z,10.43
2022-12-13T06:08:37.653Z,11.03
2022-12-13T06:11:11.099Z,10.83
2022-12-13T06:13:43.601Z,9.60
2022-12-13T06:16:22.034Z,10.60
2022-12-13T06:19:03.744Z,10.23
2022-12-13T06:21:44.201Z,9.67
2022-12-13T06:24:15.373Z,9.57
2022-12-13T06:26:45.650Z,11.13
2022-12-13T06:29:23.884Z,9.83
2022-12-13T06:32:01.672Z,10.07
2022-12-13T06:34:33.399Z,9.70
2022-12-13T06:37:02.858Z,9.70
2022-12-13T06:39:32.487Z,10.03
2022-12-13T06:42:02.656Z,8.97
2022-12-13T06:44:32.012Z,9.50
2022-12-13T06:47:12.050Z,9.40
2022-12-13T06:49:43.349Z,10.83
2022-12-13T06:52:13.165Z,8.60
2022-12-13T06:54:41.707Z,9.47
2022-12-13T06:57:09.870Z,9.47
2022-12-13T06:59:39.504Z,9.83
2022-12-13T07:02:15.481Z,10.53
2022-12-13T07:04:53.701Z,10.37
2022-12-13T07:07:21.704Z,9.50
2022-12-13T07:09:49.604Z,9.77
2022-12-13T07:12:18.575Z,8.77
2022-12-13T07:14:48.200Z,7.70
2022-12-13T07:17:33.170Z,9.00
2022-12-13T07:20:04.637Z,7.73
2022-12-13T07:22:34.555Z,8.07
2022-12-13T07:25:04.801Z,8.47
2022-12-13T07:27:32.923Z,8.40
2022-12-13T07:30:02.665Z,8.23
2022-12-13T07:32:30.661Z,8.33
2022-12-13T07:34:58.603Z,8.53
2022-12-13T07:37:30.431Z,8.53
2022-12-13T07:40:03.965Z,7.93
2022-12-13T07:42:33.013Z,9.00
2022-12-13T07:45:02.372Z,8.73
2022-12-13T07:47:31.183Z,8.63
2022-12-13T07:49:59.189Z,8.23
2022-12-13T07:52:27.192Z,9.50
2022-12-13T07:54:55.574Z,9.87
2022-12-13T07:57:23.532Z,8.37
2022-12-13T07:59:51.476Z,9.33
2022-12-13T08:02:20.694Z,9.23
2022-12-13T08:04:54.779Z,8.53
2022-12-13T08:07:23.382Z,9.57
2022-12-13T08:09:53.134Z,9.60
2022-12-13T08:12:22.339Z,9.13
2022-12-13T08:14:53.070Z,9.43
2022-12-13T08:17:23.125Z,10.87
2022-12-13T08:19:51.173Z,9.53
2022-12-13T08:22:23.752Z,9.43
2022-12-13T08:24:52.655Z,9.80
2022-12-13T08:27:20.596Z,9.63
2022-12-13T08:29:48.715Z,9.50
2022-12-13T08:32:16.660Z,10.03
2022-12-13T08:34:46.593Z,10.53
2022-12-13T08:37:14.829Z,10.57
2022-12-13T08:39:42.760Z,9.83
2022-12-13T08:42:18.227Z,8.73
2022-12-13T08:44:49.134Z,10.17
2022-12-13T08:47:22.982Z,10.23
2022-12-13T08:49:56.131Z,11.23
2022-12-13T08:52:31.462Z,10.60
2022-12-13T08:54:59.435Z,11.87
2022-12-13T08:57:27.383Z,12.27
2022-12-13T08:59:55.482Z,11.37
2022-12-13T09:02:23.508Z,11.97
2022-12-13T09:04:51.460Z,10.80
2022-12-13T09:07:20.773Z,11.70
2022-12-13T09:09:54.663Z,11.67
2022-12-13T09:12:30.481Z,12.40
2022-12-13T09:15:01.190Z,10.60
2022-12-13T09:17:36.735Z,10.03
2022-12-13T09:20:10.047Z,10.87
2022-12-13T09:23:01.568Z,12.37
2022-12-13T09:25:36.534Z,10.93
2022-12-13T09:28:07.981Z,9.90
2022-12-13T09:30:36.090Z,10.07
2022-12-13T09:33:17.873Z,10.70
2022-12-13T09:35:53.752Z,10.67
2022-12-13T09:38:22.995Z,11.27
2022-12-13T09:40:58.475Z,11.40
2022-12-13T09:43:32.604Z,11.50
2022-12-13T09:46:22.100Z,11.50
2022-12-13T09:49:01.401Z,11.70
2022-12-13T09:51:43.879Z,11.10
2022-12-13T09:54:19.621Z,12.73
2022-12-13T09:56:50.900Z,11.33
2022-12-13T09:59:22.445Z,11.40
2022-12-13T10:01:50.591Z,11.93
2022-12-13T10:04:19.860Z,10.20
2022-12-13T10:06:47.978Z,10.33
2022-12-13T10:09:18.686Z,11.20
2022-12-13T10:11:51.811Z,10.27
2022-12-13T10:14:27.152Z,10.70
2022-12-13T10:16:58.809Z,10.77
2022-12-13T10:19:34.399Z,11.73
2022-12-13T10:22:05.677Z,10.47
2022-12-13T10:27:31.007Z,10.23
2022-12-13T10:30:06.465Z,10.70
2022-12-13T10:32:43.069Z,10.10
2022-12-13T10:35:26.210Z,9.87
2022-12-13T10:37:55.579Z,10.03
2022-12-13T10:40:34.057Z,10.10
2022-12-13T10:43:27.410Z,9.63
2022-12-13T10:46:00.787Z,10.93
2022-12-13T10:48:38.444Z,10.20
2022-12-13T10:51:09.666Z,10.77
2022-12-13T10:53:47.120Z,9.70
2022-12-13T10:56:23.685Z,10.83
2022-12-13T10:59:16.889Z,10.30
2022-12-13T11:01:45.979Z,10.60
2022-12-13T11:04:27.731Z,10.33
2022-12-13T11:06:57.007Z,10.33
2022-12-13T11:09:39.114Z,10.03
2022-12-13T11:12:14.594Z,8.83
2022-12-13T11:14:53.898Z,10.80
2022-12-13T11:17:23.929Z,10.30
2022-12-13T11:19:54.659Z,9.60
2022-12-13T11:22:25.324Z,10.27
2022-12-13T11:24:59.842Z,10.80
2022-12-13T11:27:46.499Z,10.57
2022-12-13T11:30:22.054Z,9.70
2022-12-13T11:33:15.264Z,10.60
2022-12-13T11:35:57.775Z,10.40
2022-12-13T11:38:32.251Z,9.47
2022-12-13T11:41:07.453Z,10.27
2022-12-13T11:43:39.217Z,9.63
2022-12-13T11:46:17.153Z,10.53
2022-12-13T11:48:52.512Z,10.27
2022-12-13T11:51:25.616Z,10.10
2022-12-13T11:53:59.347Z,10.50
2022-12-13T11:56:29.516Z,10.73
2022-12-13T11:59:16.307Z,11.73
2022-12-13T12:01:56.584Z,10.03
2022-12-13T12:04:38.890Z,11.57
2022-12-13T12:07:31.668Z,10.03
2022-12-13T12:10:12.191Z,9.47
2022-12-13T12:12:45.059Z,10.07
2022-12-13T12:15:26.503Z,9.80
2022-12-13T12:17:57.096Z,9.30
2022-12-13T12:20:38.208Z,10.53
2022-12-13T12:23:19.190Z,9.73
2022-12-13T12:25:53.946Z,10.13
2022-12-13T12:28:35.433Z,9.73
2022-12-13T12:31:19.900Z,9.63
2022-12-13T12:33:56.183Z,9.80
2022-12-13T12:36:42.604Z,9.97
2022-12-13T12:39:28.101Z,8.53
2022-12-13T12:42:14.262Z,7.40
2022-12-13T12:44:54.249Z,7.77
2022-12-13T12:48:42.652Z,7.50
2022-12-13T12:50:42.769Z,8.10
2022-12-13T12:53:26.022Z,7.93
2022-12-13T12:56:06.456Z,8.47
2022-12-13T12:58:45.534Z,8.70
2022-12-13T13:01:23.108Z,9.53
2022-12-13T13:03:54.449Z,10.13
2022-12-13T13:06:36.074Z,10.50
2022-12-13T13:09:09.174Z,11.03
2022-12-13T13:11:43.226Z,10.40
2022-12-13T13:14:28.181Z,10.40
2022-12-13T13:16:56.814Z,8.80
2022-12-13T13:19:46.139Z,9.80
2022-12-13T13:22:44.195Z,9.73
2022-12-13T13:25:29.252Z,10.47
2022-12-13T13:28:16.414Z,9.67
2022-12-13T13:31:06.332Z,10.33
2022-12-13T13:33:46.567Z,10.20
2022-12-13T13:36:47.976Z,9.73
2022-12-13T13:39:36.937Z,10.23
2022-12-13T13:42:18.340Z,9.70
2022-12-13T13:45:03.100Z,10.30
2022-12-13T13:47:39.978Z,11.07
2022-12-13T13:50:40.592Z,10.90
2022-12-13T13:53:35.506Z,10.27
2022-12-13T13:56:18.291Z,10.87
2022-12-13T13:59:24.783Z,10.93
2022-12-13T14:02:31.816Z,10.60
2022-12-13T14:05:48.095Z,10.77
2022-12-13T14:08:35.646Z,11.50
2022-12-13T14:11:22.265Z,12.47
2022-12-13T14:14:23.417Z,10.93
2022-12-13T14:17:27.316Z,11.20
2022-12-13T14:20:18.680Z,12.07
2022-12-13T14:22:51.704Z,11.60
2022-12-13T14:25:46.391Z,11.90
2022-12-13T14:28:29.493Z,12.10
2022-12-13T14:30:58.001Z,11.93
2022-12-13T14:33:28.163Z,12.27
2022-12-13T14:35:58.636Z,11.43
2022-12-13T14:38:28.549Z,12.30
2022-12-13T14:41:00.032Z,12.57
2022-12-13T14:43:30.827Z,12.27
2022-12-13T14:46:00.454Z,12.17
2022-12-13T14:48:33.746Z,13.63
2022-12-13T14:51:01.913Z,13.47
2022-12-13T14:53:34.592Z,13.73
2022-12-13T14:56:11.270Z,12.40
2022-12-13T14:59:00.190Z,12.03
2022-12-13T15:01:32.382Z,12.57
2022-12-13T15:04:20.436Z,13.00
2022-12-13T15:06:51.283Z,12.97
2022-12-13T15:09:19.749Z,12.40
2022-12-13T15:11:48.027Z,13.43
2022-12-13T15:14:20.731Z,13.27
2022-12-13T15:16:50.732Z,14.53
2022-12-13T15:19:30.287Z,12.60
2022-12-13T15:22:12.665Z,14.40
2022-12-13T15:24:47.121Z,13.37
2022-12-13T15:27:19.489Z,13.10
2022-12-13T15:29:49.886Z,12.63
2022-12-13T15:32:22.631Z,13.27
2022-12-13T15:34:52.123Z,13.77
2022-12-13T15:37:28.307Z,13.17
2022-12-13T15:40:01.707Z,12.60
2022-12-13T15:42:33.380Z,13.13
2022-12-13T15:45:06.243Z,12.53
2022-12-13T15:47:34.576Z,13.93
2022-12-13T15:50:04.659Z,13.90
2022-12-13T15:52:36.344Z,13.67
2022-12-13T15:55:28.467Z,13.00
2022-12-13T15:57:58.710Z,13.27
2022-12-13T16:00:31.070Z,13.90
2022-12-13T16:03:09.085Z,14.60
2022-12-13T16:05:41.243Z,14.77
2022-12-13T16:08:24.564Z,14.90
2022-12-13T16:10:53.927Z,15.23
2022-12-13T16:13:26.435Z,14.33
2022-12-13T16:16:00.272Z,16.47
2022-12-13T16:18:45.717Z,15.10
2022-12-13T16:21:14.363Z,16.63
2022-12-13T16:23:48.535Z,15.77
2022-12-13T16:26:23.607Z,14.53
2022-12-13T16:28:51.797Z,14.90
2022-12-13T16:31:23.210Z,15.60
2022-12-13T16:33:51.316Z,15.70
2022-12-13T16:36:19.373Z,16.50
2022-12-13T16:38:47.417Z,27.30
2022-12-13T16:41:16.224Z,21.60
2022-12-13T16:43:52.284Z,16.03
2022-12-13T16:47:14.340Z,14.20
2022-12-13T16:49:19.987Z,14.13
2022-12-13T16:51:48.926Z,14.93
2022-12-13T16:54:17.738Z,13.03
2022-12-13T16:56:46.022Z,15.10
2022-12-13T16:59:15.632Z,14.93
2022-12-13T17:01:47.965Z,14.97
2022-12-13T17:04:21.037Z,15.57
2022-12-13T17:06:50.092Z,15.57
2022-12-13T17:09:18.760Z,14.90
2022-12-13T17:11:47.119Z,14.83
2022-12-13T17:14:15.629Z,15.33
2022-12-13T17:16:43.612Z,15.33
2022-12-13T17:19:15.397Z,16.13
2022-12-13T17:21:43.602Z,17.10
2022-12-13T17:24:12.572Z,18.33
2022-12-13T17:26:41.145Z,18.83
2022-12-13T17:29:22.166Z,17.10
2022-12-13T17:31:50.186Z,16.97
2022-12-13T17:34:19.743Z,16.80
2022-12-13T17:36:47.798Z,15.37
2022-12-13T17:39:15.794Z,16.77
2022-12-13T17:41:43.918Z,17.00
2022-12-13T17:44:23.236Z,17.33
2022-12-13T17:46:54.570Z,17.70
2022-12-13T17:49:24.995Z,17.87
2022-12-13T17:51:54.114Z,16.93
2022-12-13T17:54:23.513Z,16.83
2022-12-13T17:56:52.327Z,16.77
2022-12-13T17:59:21.163Z,17.67
2022-12-13T18:01:49.450Z,17.47
2022-12-13T18:04:18.056Z,17.47
2022-12-13T18:06:47.793Z,18.67
2022-12-13T18:09:16.068Z,19.70
2022-12-13T18:11:44.353Z,20.47
2022-12-13T18:14:12.618Z,18.77
2022-12-13T18:16:41.434Z,18.70
2022-12-13T18:19:12.453Z,19.70
2022-12-13T18:21:41.025Z,20.67
2022-12-13T18:24:12.023Z,21.70
2022-12-13T18:26:40.566Z,18.67
2022-12-13T18:29:08.875Z,20.33
2022-12-13T18:31:39.893Z,19.57
2022-12-13T18:34:09.029Z,19.37
2022-12-13T18:36:39.581Z,19.33
2022-12-13T18:39:07.973Z,36.87
2022-12-13T18:41:37.782Z,48.50
2022-12-13T18:44:08.258Z,41.77
2022-12-13T18:46:38.105Z,23.23
2022-12-13T18:49:07.773Z,19.23
2022-12-13T18:51:36.287Z,21.07
2022-12-13T18:54:04.838Z,20.07
2022-12-13T18:56:33.113Z,19.63
2022-12-13T18:59:02.864Z,20.17
2022-12-13T19:01:31.351Z,20.80
2022-12-13T19:03:59.802Z,19.80
2022-12-13T19:06:29.548Z,19.97
2022-12-13T19:08:59.305Z,18.47
2022-12-13T19:11:28.895Z,19.77
2022-12-13T19:13:57.884Z,19.63
2022-12-13T19:16:28.138Z,20.70
2022-12-13T19:18:56.521Z,20.87
2022-12-13T19:21:24.854Z,22.77
2022-12-13T19:23:57.836Z,22.07
2022-12-13T19:26:28.230Z,22.63
2022-12-13T19:28:58.172Z,23.80
2022-12-13T19:31:32.379Z,22.27
2022-12-13T19:34:01.660Z,23.13
2022-12-13T19:36:30.328Z,22.87
2022-12-13T19:38:58.876Z,23.00
2022-12-13T19:41:27.387Z,24.20
2022-12-13T19:43:55.768Z,23.63
2022-12-13T19:46:24.214Z,22.47
2022-12-13T19:48:54.129Z,22.93
2022-12-13T19:51:22.859Z,21.23
2022-12-13T19:53:51.286Z,22.33
2022-12-13T19:56:21.948Z,21.17
2022-12-13T19:58:51.334Z,21.80
2022-12-13T20:01:20.039Z,23.40
2022-12-13T20:03:48.592Z,22.33
2022-12-13T20:06:19.634Z,20.97
2022-12-13T20:08:47.869Z,21.27
2022-12-13T20:11:20.299Z,22.90
2022-12-13T20:13:48.978Z,22.50
2022-12-13T20:16:18.467Z,22.23
2022-12-13T20:18:47.260Z,22.90
2022-12-13T20:21:17.096Z,21.87
2022-12-13T20:23:49.005Z,21.50
2022-12-13T20:26:20.119Z,22.07
2022-12-13T20:28:49.020Z,20.43
2022-12-13T20:31:19.945Z,23.37
2022-12-13T20:33:48.687Z,22.87
2022-12-13T20:36:25.287Z,21.70
2022-12-13T20:38:55.966Z,21.97
2022-12-13T20:41:25.382Z,21.57
2022-12-13T20:43:54.112Z,21.30
2022-12-13T20:46:23.466Z,23.33
2022-12-13T20:48:52.491Z,22.13
2022-12-13T20:51:24.477Z,22.50
2022-12-13T20:53:53.463Z,21.10
2022-12-13T20:56:23.718Z,21.37
2022-12-13T20:58:52.004Z,20.13
2022-12-13T21:01:21.488Z,23.17
2022-12-13T21:03:49.466Z,24.03
2022-12-13T21:06:17.555Z,24.27
2022-12-13T21:08:52.701Z,23.70
2022-12-13T21:11:28.907Z,25.67
2022-12-13T21:14:05.320Z,23.90
2022-12-13T21:16:38.470Z,24.27
2022-12-13T21:19:09.674Z,24.53
2022-12-13T21:21:38.314Z,23.77
2022-12-13T21:24:08.438Z,24.27
2022-12-13T21:26:36.744Z,23.80
2022-12-13T21:29:07.675Z,24.50
2022-12-13T21:31:36.877Z,24.67
2022-12-13T21:34:06.792Z,25.73
2022-12-13T21:36:36.781Z,25.40
2022-12-13T21:39:08.623Z,25.17
2022-12-13T21:41:36.663Z,24.70
2022-12-13T21:44:05.185Z,24.23
2022-12-13T21:47:10.092Z,25.73
2022-12-13T21:49:21.427Z,23.97
2022-12-13T21:51:49.426Z,26.80
2022-12-13T21:54:19.212Z,24.50
2022-12-13T21:57:04.595Z,25.00
2022-12-13T21:59:32.725Z,24.83
2022-12-13T22:02:14.725Z,26.50
2022-12-13T22:04:44.983Z,26.07
2022-12-13T22:07:14.690Z,26.90
2022-12-13T22:09:44.219Z,25.13
2022-12-13T22:12:20.195Z,26.17
2022-12-13T22:14:48.504Z,26.67
2022-12-13T22:17:16.771Z,26.17
2022-12-13T22:19:48.780Z,26.67
2022-12-13T22:22:17.687Z,26.83
2022-12-13T22:24:53.201Z,26.37
2022-12-13T22:27:25.319Z,26.30
2022-12-13T22:29:55.190Z,27.20
2022-12-13T22:32:23.597Z,26.70
2022-12-13T22:34:53.209Z,27.13
2022-12-13T22:37:21.413Z,27.93
2022-12-13T22:39:51.256Z,26.37
2022-12-13T22:42:20.286Z,28.33
2022-12-13T22:44:48.707Z,28.23
2022-12-13T22:47:16.854Z,29.90
2022-12-13T22:49:44.895Z,29.87
2022-12-13T22:52:16.930Z,27.73
2022-12-13T22:54:44.901Z,28.03
2022-12-13T22:57:14.275Z,28.83
2022-12-13T22:59:42.275Z,30.20
2022-12-13T23:02:10.525Z,30.27
2022-12-13T23:04:38.688Z,28.43
2022-12-13T23:07:06.780Z,30.80
2022-12-13T23:09:34.849Z,29.70
2022-12-13T23:12:20.374Z,31.07
2022-12-13T23:14:49.660Z,28.60
2022-12-13T23:17:18.073Z,28.80
2022-12-13T23:19:51.577Z,29.27
2022-12-13T23:22:21.913Z,29.80
2022-12-13T23:24:50.394Z,28.87
2022-12-13T23:27:18.484Z,30.17
2022-12-13T23:29:46.666Z,29.60
2022-12-13T23:32:16.663Z,30.93
2022-12-13T23:34:44.618Z,29.77
2022-12-13T23:37:12.642Z,31.10
2022-12-13T23:39:41.518Z,31.67
2022-12-13T23:42:09.572Z,29.33
2022-12-13T23:44:37.870Z,29.90
2022-12-13T23:47:05.924Z,29.90
2022-12-13T23:49:35.278Z,30.07
2022-12-13T23:52:03.308Z,29.43
2022-12-13T23:54:31.313Z,29.83
2022-12-13T23:56:59.242Z,28.60
2022-12-13T23:59:28.791Z,29.97
